Time;durP1;ratioP1;P1;durP2;ratioP2;P2;SDS_P1;SDS_P2;PMS_P1;PMS_P2;Temp;Humidity;BMP_temperature;BMP_pressure;BME280_temperature;BME280_humidity;BME280_pressure;Samples;Min_cycle;Max_cycle;Signal;HPM_P1;HPM_P2
2022/02/06 00:04:49;;;;;;;7.40;3.30;;;;;;;3.04;100.00;100279.17;5266520;55;1136882;-75
2022/02/06 00:09:55;;;;;;;9.80;3.50;;;;;;;3.02;99.77;100275.78;5263254;55;1137497;-74
2022/02/06 00:15:01;;;;;;;11.30;3.60;;;;;;;3.04;99.89;100259.58;5264515;55;1134744;-75
2022/02/06 00:20:08;;;;;;;13.90;3.83;;;;;;;3.02;100.00;100261.42;5230524;55;1136980;-75
2022/02/06 00:25:28;;;;;;;20.33;4.67;;;;;;;2.98;99.92;100246.35;5221862;56;1139498;-70
2022/02/06 00:41:12;;;;;;;13.03;3.73;;;;;;;2.87;100.00;100230.39;5221751;56;1138995;-77
2022/02/06 00:46:01;;;;;;;12.43;4.00;;;;;;;2.84;100.00;100220.09;5219937;55;1139253;-74
2022/02/06 00:51:16;;;;;;;13.30;3.63;;;;;;;2.85;100.00;100214.41;5285749;55;1139019;-74
2022/02/06 00:56:15;;;;;;;5.50;3.00;;;;;;;2.80;100.00;100208.10;5310135;55;1139052;-77
2022/02/06 01:01:21;;;;;;;9.90;3.50;;;;;;;2.79;100.00;100207.25;5310243;55;1134859;-72
2022/02/06 01:06:27;;;;;;;7.90;3.57;;;;;;;2.72;100.00;100198.52;5310531;55;1134856;-73
2022/02/06 01:11:35;;;;;;;6.70;3.20;;;;;;;2.65;100.00;100180.16;5310312;55;1135084;-75
2022/02/06 01:16:48;;;;;;;13.47;2.93;;;;;;;2.55;100.00;100162.81;5310435;55;1135116;-73
2022/02/06 01:21:57;;;;;;;6.83;3.13;;;;;;;2.45;100.00;100154.58;5310188;55;1137159;-75
2022/02/06 01:27:08;;;;;;;7.90;2.73;;;;;;;2.37;100.00;100143.69;5309677;55;1134813;-77
2022/02/06 01:32:10;;;;;;;11.20;2.90;;;;;;;2.32;100.00;100127.87;5310132;55;1134850;-75
2022/02/06 01:42:33;;;;;;;7.90;3.47;;;;;;;2.27;100.00;100115.08;5308281;55;1136866;-78
2022/02/06 02:03:48;;;;;;;8.15;2.85;;;;;;;2.30;100.00;100072.30;5211570;56;1139088;-75
2022/02/06 02:14:30;;;;;;;1.98;1.87;;;;;;;2.29;100.00;100057.59;5236437;56;1137122;-71
2022/02/06 02:46:52;;;;;;;6.00;2.08;;;;;;;2.08;100.00;99981.27;5221672;56;1134855;-73
2022/02/06 02:51:05;;;;;;;6.00;3.33;;;;;;;2.03;100.00;99969.75;5196737;56;1134841;-75
2022/02/06 02:56:36;;;;;;;2.37;2.00;;;;;;;2.00;100.00;99971.21;5221779;56;1134869;-74
2022/02/06 03:06:33;;;;;;;5.62;2.80;;;;;;;1.95;100.00;99953.67;5221778;55;1134835;-73
2022/02/06 03:11:39;;;;;;;5.10;3.37;;;;;;;1.95;100.00;99928.90;5222943;56;1135434;-73
2022/02/06 03:16:51;;;;;;;2.57;2.10;;;;;;;1.96;100.00;99918.85;5242771;55;1132778;-77
2022/02/06 03:21:52;;;;;;;2.50;2.00;;;;;;;1.98;100.00;99917.47;5242844;55;1132761;-78
2022/02/06 03:26:58;;;;;;;3.77;2.20;;;;;;;1.98;100.00;99910.95;5242731;55;1132752;-76
2022/02/06 03:32:04;;;;;;;4.93;1.80;;;;;;;1.95;100.00;99897.61;5242640;55;1133033;-76
2022/02/06 03:37:10;;;;;;;2.10;1.55;;;;;;;1.96;100.00;99893.23;5242528;55;1132754;-76
2022/02/06 03:42:16;;;;;;;2.20;2.00;;;;;;;1.95;100.00;99879.36;5242786;55;1132743;-77
2022/02/06 03:47:25;;;;;;;2.77;2.17;;;;;;;1.95;100.00;99871.53;5242270;55;1132757;-79
2022/02/06 03:52:45;;;;;;;4.83;1.77;;;;;;;1.95;100.00;99856.34;5331872;54;1132731;-81
2022/02/06 03:57:40;;;;;;;2.63;2.00;;;;;;;1.95;100.00;99850.67;5330763;54;1132833;-70
2022/02/06 04:02:46;;;;;;;4.23;2.30;;;;;;;1.94;100.00;99838.55;5332417;54;1132702;-75
2022/02/06 04:07:52;;;;;;;3.17;2.23;;;;;;;1.96;100.00;99817.16;5331755;55;1132863;-72
2022/02/06 04:13:01;;;;;;;2.23;2.07;;;;;;;2.01;100.00;99815.58;5331346;55;1132582;-76
2022/02/06 04:18:16;;;;;;;2.03;1.93;;;;;;;2.01;100.00;99792.95;5331678;55;1132769;-77
2022/02/06 04:23:16;;;;;;;1.70;1.60;;;;;;;2.05;100.00;99793.63;5331312;54;1132736;-75
2022/02/06 04:28:21;;;;;;;3.70;2.90;;;;;;;2.06;100.00;99790.11;5332181;55;1132786;-76
2022/02/06 04:33:28;;;;;;;1.70;1.60;;;;;;;2.08;100.00;99770.84;5332270;54;1133141;-73
2022/02/06 04:38:46;;;;;;;6.87;1.77;;;;;;;2.10;100.00;99751.20;5330780;55;1130910;-75
2022/02/06 04:49:29;;;;;;;4.97;2.03;;;;;;;2.15;100.00;99730.06;5299707;55;1135216;-72
2022/02/06 04:54:42;;;;;;;2.40;2.17;;;;;;;2.17;100.00;99710.80;5238633;56;1134922;-78
2022/02/06 05:21:24;;;;;;;6.78;1.80;;;;;;;2.20;100.00;99692.83;5190741;57;1134979;-75
2022/02/06 05:31:28;;;;;;;2.33;1.73;;;;;;;2.23;100.00;99673.94;5190447;57;1134909;-75
2022/02/06 05:36:23;;;;;;;1.77;1.67;;;;;;;2.26;100.00;99682.06;5194510;55;1135231;-79
2022/02/06 05:41:29;;;;;;;3.30;2.27;;;;;;;2.25;100.00;99657.73;5190735;57;1134966;-73
2022/02/06 05:46:35;;;;;;;3.10;1.73;;;;;;;2.28;100.00;99652.81;5190551;57;1134973;-74
2022/02/06 05:51:41;;;;;;;2.17;1.80;;;;;;;2.29;100.00;99645.37;5263544;55;1134877;-74
2022/02/06 05:56:47;;;;;;;3.30;2.23;;;;;;;2.29;100.00;99630.52;5278526;55;1134911;-74
2022/02/06 06:01:55;;;;;;;1.97;1.30;;;;;;;2.32;100.00;99625.59;5278249;56;1134852;-77
2022/02/06 06:07:02;;;;;;;2.10;1.90;;;;;;;2.35;100.00;99620.20;5278578;55;1134226;-77
2022/02/06 06:12:09;;;;;;;1.57;1.47;;;;;;;2.37;100.00;99613.13;5278291;56;1134873;-71
2022/02/06 06:17:16;;;;;;;1.60;1.50;;;;;;;2.41;100.00;99606.35;5290537;55;1134810;-75
2022/02/06 06:22:22;;;;;;;2.33;1.80;;;;;;;2.43;100.00;99599.73;5299101;56;1135079;-73
2022/02/06 06:27:27;;;;;;;1.87;1.57;;;;;;;2.44;100.00;99589.68;5299306;55;1132798;-76
2022/02/06 06:32:34;;;;;;;2.20;1.80;;;;;;;2.48;100.00;99580.72;5299270;55;1132784;-79
2022/02/06 06:37:41;;;;;;;1.50;1.40;;;;;;;2.52;100.00;99573.09;5299562;55;1132789;-75
2022/02/06 06:42:47;;;;;;;1.67;1.57;;;;;;;2.55;100.00;99561.63;5300014;55;1133119;-70
2022/02/06 06:47:54;;;;;;;1.63;1.57;;;;;;;2.61;100.00;99567.77;5290995;55;1132828;-77
2022/02/06 06:53:04;;;;;;;2.20;1.50;;;;;;;2.64;100.00;99559.30;5288499;55;1133023;-77
2022/02/06 07:03:16;;;;;;;1.40;1.30;;;;;;;2.72;100.00;99538.80;5288404;55;1132732;-79
2022/02/06 07:08:23;;;;;;;1.70;1.60;;;;;;;2.76;100.00;99531.13;5288404;55;1132800;-78
2022/02/06 07:13:29;;;;;;;6.23;2.10;;;;;;;2.80;100.00;99530.02;5288720;55;1132861;-79
2022/02/06 07:18:34;;;;;;;3.27;1.80;;;;;;;2.84;100.00;99511.09;5295071;55;1132872;-76
2022/02/06 07:23:40;;;;;;;9.93;5.00;;;;;;;2.87;100.00;99517.44;5215469;55;1132978;-77
2022/02/06 07:28:48;;;;;;;5.93;3.97;;;;;;;2.91;100.00;99519.36;5209169;56;1132773;-79
2022/02/06 07:33:53;;;;;;;6.43;4.83;;;;;;;2.92;100.00;99508.83;5220703;55;1132688;-78
2022/02/06 07:38:58;;;;;;;4.10;1.87;;;;;;;2.93;100.00;99498.75;5206259;56;1132730;-79
2022/02/06 07:44:05;;;;;;;3.37;2.00;;;;;;;2.98;100.00;99483.64;5157865;56;1133009;-78
2022/02/06 07:49:11;;;;;;;3.37;2.53;;;;;;;2.98;100.00;99476.27;5203333;55;1130623;-80
2022/02/06 07:54:17;;;;;;;5.87;3.80;;;;;;;2.99;100.00;99476.64;5300926;55;1130967;-82
2022/02/06 07:59:23;;;;;;;11.63;5.80;;;;;;;2.98;100.00;99464.05;5308617;55;1134817;-75
2022/02/06 08:04:30;;;;;;;3.20;2.83;;;;;;;2.99;100.00;99472.27;5249297;55;1136846;-81
2022/02/06 08:14:52;;;;;;;30.20;16.20;;;;;;;2.97;100.00;99459.77;5304541;55;1134950;-76
2022/02/06 08:20:00;;;;;;;15.33;7.87;;;;;;;2.93;100.00;99451.74;5201190;56;1139520;-84
2022/02/06 08:25:08;;;;;;;18.40;9.87;;;;;;;2.92;100.00;99451.84;5280407;55;1136886;-84
2022/02/06 08:30:15;;;;;;;20.20;12.70;;;;;;;2.92;100.00;99427.87;5302530;55;1136835;-76
2022/02/06 08:35:22;;;;;;;29.20;14.07;;;;;;;2.92;100.00;99427.87;5226762;55;1139389;-80
2022/02/06 08:40:28;;;;;;;15.13;11.33;;;;;;;2.93;100.00;99424.80;5256599;55;1138927;-76
2022/02/06 08:45:35;;;;;;;79.97;50.47;;;;;;;2.95;100.00;99415.09;5220456;56;1139057;-76
2022/02/06 08:50:41;;;;;;;52.00;30.00;;;;;;;2.94;100.00;99403.80;5267773;55;1139178;-79
2022/02/06 08:55:49;;;;;;;34.63;17.03;;;;;;;2.97;100.00;99393.17;5293677;55;1139090;-72
2022/02/06 09:00:54;;;;;;;7.73;4.60;;;;;;;3.01;100.00;99393.34;5298707;55;1139060;-76
2022/02/06 09:06:00;;;;;;;7.28;3.95;;;;;;;3.03;100.00;99390.17;5299230;55;1135220;-81
2022/02/06 09:11:06;;;;;;;18.33;5.33;;;;;;;3.07;100.00;99370.73;5298597;55;1134835;-75
2022/02/06 09:16:11;;;;;;;26.20;7.73;;;;;;;3.12;100.00;99386.11;5298721;55;1137138;-74
2022/02/06 09:21:18;;;;;;;16.70;6.87;;;;;;;3.15;100.00;99375.00;5306451;55;1136950;-79
2022/02/06 09:26:26;;;;;;;10.83;7.67;;;;;;;3.20;100.00;99372.09;5321793;55;1137002;-82
2022/02/06 09:31:31;;;;;;;17.43;8.53;;;;;;;3.27;100.00;99369.91;5311691;55;1136968;-79
2022/02/06 09:36:38;;;;;;;18.43;7.30;;;;;;;3.31;100.00;99360.46;5296170;55;1136831;-79
2022/02/06 09:41:48;;;;;;;60.67;17.00;;;;;;;3.37;100.00;99353.97;5288189;55;1136916;-80
2022/02/06 09:46:58;;;;;;;24.12;9.70;;;;;;;3.41;100.00;99341.08;5272344;55;1138966;-77
2022/02/06 09:52:04;;;;;;;19.80;9.87;;;;;;;3.48;100.00;99338.43;5281138;55;1136926;-76
2022/02/06 09:57:12;;;;;;;6.33;3.20;;;;;;;3.53;100.00;99330.63;5278987;55;1137131;-74
2022/02/06 10:02:19;;;;;;;14.67;5.27;;;;;;;3.58;100.00;99321.17;5243702;55;1134926;-77
2022/02/06 10:07:46;;;;;;;29.90;9.43;;;;;;;3.62;100.00;99316.11;5220670;56;1136887;-77
2022/02/06 10:12:55;;;;;;;21.63;7.27;;;;;;;3.68;100.00;99308.30;5220505;56;1136915;-75
2022/02/06 10:18:01;;;;;;;70.93;29.63;;;;;;;3.72;100.00;99285.77;5221145;56;1137176;-81
2022/02/06 10:23:10;;;;;;;21.27;6.63;;;;;;;3.76;100.00;99282.00;5220993;56;1139094;-72
2022/02/06 10:28:37;;;;;;;12.63;7.23;;;;;;;3.82;100.00;99280.25;5219264;56;1134965;-78
2022/02/06 10:33:53;;;;;;;19.03;10.33;;;;;;;3.86;100.00;99271.26;5221263;56;1134946;-78
2022/02/06 10:39:05;;;;;;;44.07;19.87;;;;;;;3.94;100.00;99262.05;5242228;55;1137033;-75
2022/02/06 10:44:11;;;;;;;16.77;11.17;;;;;;;3.99;100.00;99262.55;5233382;55;1137167;-74
2022/02/06 10:49:22;;;;;;;29.00;15.50;;;;;;;4.04;100.00;99246.06;5266308;55;1137192;-76
2022/02/06 10:54:35;;;;;;;16.73;9.73;;;;;;;4.10;100.00;99239.09;5241393;55;1136956;-74
2022/02/06 10:59:56;;;;;;;13.63;9.63;;;;;;;4.17;100.00;99238.53;5255107;55;1134880;-73
2022/02/06 11:05:20;;;;;;;40.00;16.30;;;;;;;4.24;100.00;99221.93;5249063;55;1136644;-82
2022/02/06 11:10:27;;;;;;;39.53;15.13;;;;;;;4.30;100.00;99203.15;5249657;55;1138844;-76
2022/02/06 11:15:40;;;;;;;21.57;9.43;;;;;;;4.35;100.00;99197.12;5309136;54;1139203;-80
2022/02/06 11:21:10;;;;;;;24.07;13.10;;;;;;;4.38;100.00;99182.50;5309239;54;1137147;-78
2022/02/06 11:26:22;;;;;;;10.43;7.27;;;;;;;4.43;100.00;99180.87;5309376;54;1139133;-75
2022/02/06 11:31:29;;;;;;;10.40;5.53;;;;;;;4.49;100.00;99165.52;5308291;54;1136923;-72
2022/02/06 11:47:51;;;;;;;100.57;42.40;;;;;;;4.62;100.00;99151.03;5300379;54;1139022;-72
2022/02/06 11:53:03;;;;;;;43.13;14.07;;;;;;;4.64;100.00;99135.21;5299764;55;1141335;-74
2022/02/06 11:58:34;;;;;;;43.23;22.63;;;;;;;4.68;100.00;99130.11;5299569;55;1139061;-73
2022/02/06 12:04:07;;;;;;;31.23;11.70;;;;;;;4.70;100.00;99121.20;5297729;55;1137037;-75
2022/02/06 12:09:14;;;;;;;38.47;13.67;;;;;;;4.74;100.00;99120.47;5312219;55;1136942;-73
2022/02/06 12:14:23;;;;;;;18.80;10.27;;;;;;;4.77;100.00;99111.07;5292357;55;1136932;-74
2022/02/06 12:19:34;;;;;;;22.23;8.73;;;;;;;4.82;100.00;99111.09;5250598;55;1137058;-72
2022/02/06 12:24:42;;;;;;;23.57;11.13;;;;;;;4.88;100.00;99091.46;5255026;55;1135008;-78
2022/02/06 12:30:01;;;;;;;62.87;23.67;;;;;;;4.92;100.00;99083.70;5294819;55;1137077;-77
2022/02/06 12:40:33;;;;;;;9.63;5.63;;;;;;;5.00;100.00;99070.86;5321551;55;1136944;-71
2022/02/06 12:45:40;;;;;;;33.83;12.70;;;;;;;5.02;100.00;99064.19;5230933;55;1134796;-75
2022/02/06 12:50:48;;;;;;;10.20;4.47;;;;;;;5.04;100.00;99044.75;5232817;55;1139012;-77
2022/02/06 12:55:53;;;;;;;20.10;6.70;;;;;;;5.08;100.00;99047.97;5301719;55;1137087;-74
2022/02/06 13:00:59;;;;;;;15.27;7.30;;;;;;;5.14;100.00;99029.16;5298274;55;1137007;-74
2022/02/06 13:06:17;;;;;;;11.67;5.17;;;;;;;5.16;100.00;99025.47;5259628;55;1137191;-75
2022/02/06 13:11:34;;;;;;;9.20;5.40;;;;;;;5.18;100.00;99021.42;5309087;55;1136949;-79
2022/02/06 13:16:47;;;;;;;15.83;6.57;;;;;;;5.20;100.00;98995.89;5313511;55;1134758;-80
2022/02/06 13:22:33;;;;;;;7.57;3.97;;;;;;;5.22;100.00;98996.61;5342206;54;1136935;-76
2022/02/06 13:27:42;;;;;;;18.80;6.77;;;;;;;5.26;100.00;98993.63;5392218;54;1134443;-80
2022/02/06 13:32:53;;;;;;;8.07;4.40;;;;;;;5.27;100.00;98980.88;5389036;54;1136475;-76
2022/02/06 13:37:44;;;;;;;21.73;12.10;;;;;;;5.28;100.00;98972.55;5382964;54;1135071;-72
2022/02/06 13:43:16;;;;;;;15.10;7.17;;;;;;;5.30;100.00;98949.19;5316509;54;1139058;-79
2022/02/06 13:48:19;;;;;;;21.67;9.20;;;;;;;5.30;100.00;98944.42;5202896;55;1139006;-78
2022/02/06 13:53:26;;;;;;;13.17;5.97;;;;;;;5.30;100.00;98922.97;5241319;55;1139045;-77
2022/02/06 13:58:32;;;;;;;16.23;7.53;;;;;;;5.32;100.00;98904.98;5299646;55;1138981;-76
2022/02/06 14:03:49;;;;;;;15.13;7.17;;;;;;;5.33;100.00;98892.23;5355212;54;1139059;-78
2022/02/06 14:09:10;;;;;;;16.50;5.85;;;;;;;5.34;100.00;98875.07;5359125;55;1138986;-77
2022/02/06 14:14:21;;;;;;;15.20;8.27;;;;;;;5.36;100.00;98864.42;5299442;55;1134888;-77
2022/02/06 14:19:45;;;;;;;13.50;7.13;;;;;;;5.39;100.00;98845.35;5296871;55;1137033;-78
2022/02/06 14:24:54;;;;;;;17.12;7.20;;;;;;;5.29;100.00;98821.70;5295052;55;1136941;-78
2022/02/06 14:30:07;;;;;;;47.03;18.10;;;;;;;5.43;100.00;98816.62;5298361;55;1136925;-71
2022/02/06 14:35:13;;;;;;;27.17;8.53;;;;;;;5.45;100.00;98806.01;5196541;56;1139368;-81
2022/02/06 14:40:45;;;;;;;49.90;16.48;;;;;;;5.44;100.00;98793.86;5210174;55;1136885;-76
2022/02/06 14:45:52;;;;;;;32.97;11.73;;;;;;;5.42;100.00;98770.87;5209286;56;1137098;-79
2022/02/06 14:51:00;;;;;;;32.07;12.03;;;;;;;5.45;100.00;98769.30;5269260;55;1141159;-78
2022/02/06 14:56:08;;;;;;;28.87;12.37;;;;;;;5.47;100.00;98760.35;5206627;56;1141171;-76
2022/02/06 15:01:13;;;;;;;29.90;10.27;;;;;;;5.47;100.00;98743.31;5205294;56;1140976;-72
2022/02/06 15:06:19;;;;;;;19.80;7.33;;;;;;;5.48;100.00;98736.28;5205728;56;1141162;-80
2022/02/06 15:11:25;;;;;;;23.03;10.53;;;;;;;5.51;100.00;98709.29;5202563;56;1138799;-75
2022/02/06 15:16:34;;;;;;;47.87;17.43;;;;;;;5.53;100.00;98694.27;5208712;56;1140762;-74
2022/02/06 15:21:38;;;;;;;27.57;9.30;;;;;;;5.53;100.00;98695.58;5209108;56;1141185;-80
2022/02/06 15:26:44;;;;;;;45.70;20.37;;;;;;;5.57;100.00;98665.99;5203102;56;1138994;-78
2022/02/06 15:31:51;;;;;;;17.20;5.97;;;;;;;5.58;100.00;98653.23;5218943;55;1138659;-80
2022/02/06 15:37:01;;;;;;;27.63;8.80;;;;;;;5.59;100.00;98641.30;5294505;55;1136583;-81
2022/02/06 15:42:17;;;;;;;21.70;9.27;;;;;;;5.60;100.00;98632.95;5294304;55;1139001;-77
2022/02/06 15:47:27;;;;;;;19.67;8.33;;;;;;;5.61;100.00;98623.64;5294576;55;1139000;-78
2022/02/06 15:52:29;;;;;;;42.67;14.80;;;;;;;5.61;100.00;98622.33;5304368;55;1137051;-80
2022/02/06 15:57:35;;;;;;;29.13;7.87;;;;;;;5.63;100.00;98603.84;5305161;55;1141036;-76
2022/02/06 16:02:41;;;;;;;31.73;14.00;;;;;;;5.58;100.00;98587.20;5305412;55;1136665;-74
2022/02/06 16:07:47;;;;;;;20.23;7.90;;;;;;;5.56;100.00;98573.87;5305731;55;1138998;-72
2022/02/06 16:12:53;;;;;;;29.67;12.17;;;;;;;5.53;100.00;98564.95;5305689;55;1136895;-75
2022/02/06 16:17:58;;;;;;;18.20;6.53;;;;;;;5.51;100.00;98550.66;5305377;55;1141029;-78
2022/02/06 16:39:58;;;;;;;19.33;7.73;;;;;;;5.49;100.00;98532.95;5216580;55;46949;-75
2022/02/06 16:45:05;;;;;;;21.00;11.97;;;;;;;5.43;100.00;98489.40;5021464;58;1132829;-77
2022/02/06 16:50:11;;;;;;;26.53;8.40;;;;;;;5.45;100.00;98478.30;4977277;58;1138967;-72
2022/02/06 16:55:18;;;;;;;14.20;4.20;;;;;;;5.44;100.00;98472.70;5077401;58;1136871;-77
2022/02/06 17:00:24;;;;;;;22.87;8.20;;;;;;;5.42;100.00;98472.02;4942764;58;1136884;-73
2022/02/06 17:05:29;;;;;;;13.87;6.10;;;;;;;5.41;100.00;98427.10;4937887;60;1137081;-72
2022/02/06 17:10:37;;;;;;;11.77;5.10;;;;;;;5.36;100.00;98421.44;4932936;60;1137042;-78
2022/02/06 17:15:44;;;;;;;17.97;6.30;;;;;;;5.30;100.00;98410.55;4919306;58;1136952;-77
2022/02/06 17:20:50;;;;;;;12.30;4.77;;;;;;;5.27;100.00;98397.72;4784008;59;1136945;-80
2022/02/06 17:25:56;;;;;;;11.33;5.20;;;;;;;5.20;100.00;98386.11;4919835;58;1137154;-73
2022/02/06 17:31:01;;;;;;;10.27;4.83;;;;;;;5.18;100.00;98376.77;4798037;59;1137077;-80
2022/02/06 17:36:07;;;;;;;5.93;2.60;;;;;;;5.14;100.00;98361.80;4816570;59;1136891;-81
2022/02/06 17:41:13;;;;;;;12.87;4.83;;;;;;;5.09;100.00;98363.16;4872847;59;1134848;-76
2022/02/06 17:46:19;;;;;;;9.00;4.63;;;;;;;5.09;100.00;98348.75;4939035;58;1137224;-79
2022/02/06 17:51:25;;;;;;;4.17;2.83;;;;;;;5.06;100.00;98339.84;4963355;59;1134856;-88
2022/02/06 17:56:34;;;;;;;5.87;4.13;;;;;;;5.00;100.00;98320.77;4914578;60;1134789;-84
2022/02/06 18:01:39;;;;;;;5.63;2.47;;;;;;;4.98;100.00;98314.84;4950442;59;1134795;-82
2022/02/06 18:06:45;;;;;;;7.20;3.30;;;;;;;4.91;100.00;98323.70;4967557;59;1135056;-74
2022/02/06 18:11:50;;;;;;;4.77;2.70;;;;;;;4.86;100.00;98289.27;4927300;59;1135203;-80
2022/02/06 18:16:56;;;;;;;4.00;1.57;;;;;;;4.81;100.00;98290.15;4945865;59;1134903;-78
2022/02/06 18:22:03;;;;;;;3.93;2.10;;;;;;;4.75;100.00;98270.56;4919823;59;1134871;-72
2022/02/06 18:27:09;;;;;;;3.77;2.03;;;;;;;4.73;100.00;98263.36;4917909;59;1135006;-80
2022/02/06 18:32:17;;;;;;;3.17;1.83;;;;;;;4.71;100.00;98239.09;4932062;59;1134958;-79
2022/02/06 18:37:22;;;;;;;42.83;20.23;;;;;;;4.65;100.00;98227.86;4903477;59;1134915;-73
2022/02/06 18:42:29;;;;;;;81.13;21.97;;;;;;;4.63;100.00;98218.48;4842081;60;1138980;-84
2022/02/06 18:47:36;;;;;;;6.93;2.97;;;;;;;4.62;100.00;98208.97;4913471;59;1139095;-76
2022/02/06 18:52:42;;;;;;;10.53;3.30;;;;;;;4.60;100.00;98205.18;4886422;59;1134901;-85
2022/02/06 18:57:49;;;;;;;13.23;5.17;;;;;;;4.57;100.00;98208.09;4952918;59;1136992;-77
2022/02/06 19:02:55;;;;;;;9.50;4.43;;;;;;;4.57;100.00;98195.02;4980558;58;1137009;-80
2022/02/06 19:08:01;;;;;;;9.80;3.47;;;;;;;4.54;100.00;98198.73;4982801;58;1135035;-80
2022/02/06 19:13:07;;;;;;;17.43;5.23;;;;;;;4.51;100.00;98177.23;4957221;58;1134901;-82
2022/02/06 19:18:13;;;;;;;20.97;5.70;;;;;;;4.47;100.00;98168.81;4964879;59;1136976;-77
2022/02/06 19:23:18;;;;;;;11.10;4.50;;;;;;;4.43;100.00;98169.25;4964914;58;1137181;-73
2022/02/06 19:28:25;;;;;;;27.17;12.37;;;;;;;4.41;100.00;98164.63;4965001;59;1135310;-83
2022/02/06 19:33:34;;;;;;;38.53;13.07;;;;;;;4.37;100.00;98174.55;4965869;59;1136838;-86
2022/02/06 19:38:41;;;;;;;8.38;4.40;;;;;;;4.34;100.00;98156.49;4970325;59;1136968;-82
2022/02/06 19:43:48;;;;;;;8.33;3.73;;;;;;;4.28;100.00;98151.00;4987348;59;1132894;-81
2022/02/06 19:48:54;;;;;;;15.57;4.67;;;;;;;4.26;100.00;98144.59;4987028;59;1133148;-78
2022/02/06 19:54:02;;;;;;;63.97;22.97;;;;;;;4.20;100.00;98128.95;5016642;58;1135023;-82
2022/02/06 19:59:09;;;;;;;21.27;9.37;;;;;;;4.17;100.00;98127.91;5002687;58;1137034;-85
2022/02/06 20:04:15;;;;;;;16.50;8.67;;;;;;;4.13;100.00;98121.78;4987482;59;1134977;-76
2022/02/06 20:09:22;;;;;;;32.30;10.60;;;;;;;4.12;100.00;98123.59;4964609;59;1134366;-78
2022/02/06 20:14:28;;;;;;;25.97;6.93;;;;;;;4.12;100.00;98117.06;4918872;59;1136576;-80
2022/02/06 20:19:34;;;;;;;20.43;6.53;;;;;;;4.15;100.00;98104.16;4979048;59;1134983;-74
2022/02/06 20:24:40;;;;;;;72.93;38.93;;;;;;;4.18;100.00;98112.56;5065499;58;1134953;-74
2022/02/06 20:29:47;;;;;;;26.13;7.00;;;;;;;4.21;100.00;98118.02;5057872;58;1136882;-78
2022/02/06 20:34:56;;;;;;;11.87;3.10;;;;;;;4.27;100.00;98114.03;4980291;58;1135057;-75
2022/02/06 20:40:02;;;;;;;11.50;3.80;;;;;;;4.32;100.00;98119.66;4985808;58;1134932;-74
2022/02/06 20:45:09;;;;;;;1.30;1.20;;;;;;;4.36;100.00;98112.70;4976406;58;1132875;-75
2022/02/06 20:50:15;;;;;;;2.57;0.67;;;;;;;4.41;100.00;98129.31;4976241;58;1130777;-77
2022/02/06 20:55:21;;;;;;;7.80;2.30;;;;;;;4.42;100.00;98130.48;4976759;58;1135010;-82
2022/02/06 21:00:27;;;;;;;1.80;0.80;;;;;;;4.43;100.00;98156.17;4976722;58;1134986;-81
2022/02/06 21:05:33;;;;;;;3.90;3.25;;;;;;;4.42;100.00;98171.05;4999891;58;1134888;-77
2022/02/06 21:10:38;;;;;;;14.67;4.53;;;;;;;4.40;100.00;98196.52;5055542;58;1134923;-82
2022/02/06 21:15:44;;;;;;;1.90;0.50;;;;;;;4.32;100.00;98219.08;5047100;58;1137017;-76
2022/02/06 21:20:51;;;;;;;0.20;0.20;;;;;;;4.21;100.00;98232.64;4946563;59;1134832;-70
2022/02/06 21:25:57;;;;;;;0.40;0.40;;;;;;;4.00;100.00;98235.81;5041962;58;1134883;-80
2022/02/06 21:31:03;;;;;;;0.83;0.40;;;;;;;3.90;100.00;98236.27;5019944;58;1135038;-77
2022/02/06 21:36:10;;;;;;;0.30;0.30;;;;;;;3.80;100.00;98251.11;5009526;58;1134799;-79
2022/02/06 21:41:16;;;;;;;1.07;1.00;;;;;;;3.73;100.00;98265.66;4937469;59;1134944;-80
2022/02/06 21:46:22;;;;;;;0.40;0.40;;;;;;;3.67;100.00;98282.68;5030877;58;1134703;-78
2022/02/06 21:51:29;;;;;;;0.63;0.63;;;;;;;3.62;100.00;98284.88;5059728;58;1135193;-76
2022/02/06 21:56:36;;;;;;;0.40;0.40;;;;;;;3.54;100.00;98299.05;5061591;58;1134934;-79
2022/02/06 22:01:42;;;;;;;0.37;0.37;;;;;;;3.51;100.00;98309.79;5061235;58;1134961;-73
2022/02/06 22:06:49;;;;;;;0.30;0.30;;;;;;;3.48;100.00;98313.48;5067716;58;1134954;-76
2022/02/06 22:20:30;;;;;;;2.93;0.40;;;;;;;3.48;100.00;98320.49;5044358;58;1134961;-81
2022/02/06 22:33:02;;;;;;;;;;;;;;;3.46;100.00;98339.38;5014036;58;1134956;-81
2022/02/06 22:38:07;;;;;;;0.40;0.40;;;;;;;3.44;100.00;98346.04;5033023;58;972162;-75
2022/02/06 22:43:13;;;;;;;2.93;1.70;;;;;;;3.43;100.00;98350.08;5059782;57;1132682;-73
2022/02/06 22:48:19;;;;;;;1.33;1.20;;;;;;;3.40;100.00;98353.78;5033926;57;1134935;-77
2022/02/06 22:53:25;;;;;;;2.17;1.00;;;;;;;3.41;100.00;98363.75;5013897;58;1134722;-78
2022/02/06 22:58:31;;;;;;;0.70;0.70;;;;;;;3.40;100.00;98373.38;5017545;58;1134784;-76
2022/02/06 23:03:39;;;;;;;0.50;0.50;;;;;;;3.36;100.00;98368.55;5071536;57;1134966;-74
2022/02/06 23:08:46;;;;;;;1.13;0.73;;;;;;;3.35;100.00;98389.92;5070785;58;1134947;-78
2022/02/06 23:13:53;;;;;;;1.17;0.87;;;;;;;3.35;100.00;98377.34;5019419;58;1134880;-81
2022/02/06 23:18:58;;;;;;;1.03;0.90;;;;;;;3.33;100.00;98370.10;4982120;58;1134794;-73
2022/02/06 23:24:05;;;;;;;2.47;1.47;;;;;;;3.35;100.00;98372.94;4982412;58;1134680;-84
2022/02/06 23:29:10;;;;;;;3.50;1.00;;;;;;;3.34;100.00;98358.70;4982244;58;1132860;-76
2022/02/06 23:34:16;;;;;;;2.67;1.10;;;;;;;3.30;100.00;98376.87;4987410;58;1133049;-72
2022/02/06 23:39:22;;;;;;;2.03;1.33;;;;;;;3.25;100.00;98378.55;4981598;59;1133030;-74
2022/02/06 23:44:28;;;;;;;2.87;1.30;;;;;;;3.22;100.00;98374.88;4995741;58;1132983;-75
2022/02/06 23:49:34;;;;;;;2.20;1.33;;;;;;;3.17;100.00;98369.22;4989382;58;1132889;-82
2022/02/06 23:54:53;;;;;;;1.87;0.93;;;;;;;3.13;100.00;98363.41;4989447;58;1132745;-77
